Time,TemperatureF,DewpointF,PressureIn,WindDirection,WindDirectionDegrees,WindSpeedMPH,WindSpeedGustMPH,Humidity,HourlyPrecipIn,Conditions,Clouds,dailyrainin,SolarRadiationWatts/m^2,SoftwareType,DateUTC
2013-10-21 00:42:00,42.0,38.0,-100.00,ESE,117,6.0,10.0,85,0.00,,,0.07,0.000000,,2013-10-21 06:42:00,
2013-10-21 00:52:00,42.0,38.0,-100.00,ESE,117,6.0,10.0,85,0.00,,,0.07,0.000000,,2013-10-21 06:52:00,
2013-10-21 01:42:00,41.0,36.0,-100.00,South,181,6.0,10.0,82,0.00,,,-99.99,0.000000,,2013-10-21 07:42:00,
2013-10-21 01:52:00,41.0,36.0,-100.00,South,181,6.0,10.0,82,0.00,,,-99.99,0.000000,,2013-10-21 07:52:00,
2013-10-21 02:21:00,41.0,37.0,-100.00,SE,132,6.0,7.0,85,0.00,,,0.07,0.000000,,2013-10-21 08:21:00,
2013-10-21 02:32:00,41.0,37.0,-100.00,SE,132,6.0,7.0,85,0.00,,,0.07,0.000000,,2013-10-21 08:32:00,
2013-10-21 02:42:00,41.0,37.0,-100.00,SE,132,6.0,7.0,85,0.00,,,0.07,0.000000,,2013-10-21 08:42:00,
2013-10-21 02:52:00,41.0,37.0,-100.00,SE,132,6.0,7.0,85,0.00,,,0.07,0.000000,,2013-10-21 08:52:00,
2013-10-21 03:43:00,42.0,37.0,-100.00,SSE,154,4.0,7.0,81,0.00,,,0.07,0.000000,,2013-10-21 09:43:00,
2013-10-21 03:53:00,42.0,37.0,-100.00,SSE,154,4.0,7.0,81,0.00,,,0.07,0.000000,,2013-10-21 09:53:00,
2013-10-21 04:42:00,44.0,40.0,-100.00,WSW,240,6.0,9.0,85,0.00,,,0.07,0.000000,,2013-10-21 10:42:00,
2013-10-21 04:52:00,44.0,40.0,-100.00,WSW,240,6.0,9.0,85,0.00,,,0.07,0.000000,,2013-10-21 10:52:00,
2013-10-21 05:42:00,46.0,37.0,-100.00,WSW,256,6.0,21.0,71,0.00,,,-99.99,0.000000,,2013-10-21 11:42:00,
2013-10-21 05:52:00,46.0,37.0,-100.00,WSW,256,6.0,21.0,71,0.00,,,-99.99,0.000000,,2013-10-21 11:52:00,
2013-10-21 06:42:00,47.0,36.0,-100.00,North,2,5.0,9.0,65,0.00,,,0.07,0.000000,,2013-10-21 12:42:00,
2013-10-21 06:52:00,47.0,36.0,-100.00,North,2,5.0,9.0,65,0.00,,,0.07,0.000000,,2013-10-21 12:52:00,
2013-10-21 07:42:00,47.0,36.0,-100.00,NNW,332,7.0,10.0,65,0.00,,,0.07,0.000000,,2013-10-21 13:42:00,
2013-10-21 07:52:00,47.0,36.0,-100.00,NNW,332,7.0,10.0,65,0.00,,,0.07,0.000000,,2013-10-21 13:52:00,
2013-10-21 08:22:00,47.0,35.0,-100.00,NNW,343,5.0,10.0,63,0.00,,,0.07,1.000000,,2013-10-21 14:22:00,
2013-10-21 08:32:00,47.0,35.0,-100.00,NNW,343,5.0,10.0,63,0.00,,,0.07,1.000000,,2013-10-21 14:32:00,
2013-10-21 08:42:00,47.0,35.0,-100.00,NNW,343,5.0,10.0,63,0.00,,,0.07,1.000000,,2013-10-21 14:42:00,
2013-10-21 08:52:00,47.0,35.0,-100.00,NNW,343,5.0,10.0,63,0.00,,,0.07,1.000000,,2013-10-21 14:52:00,
2013-10-21 09:21:00,48.0,36.0,-100.00,NW,310,8.0,13.0,62,0.00,,,0.06,27.000000,,2013-10-21 15:21:00,
2013-10-21 09:33:00,48.0,36.0,-100.00,NW,310,8.0,13.0,62,0.00,,,0.06,27.000000,,2013-10-21 15:33:00,
2013-10-21 09:43:00,48.0,36.0,-100.00,NW,310,8.0,13.0,62,0.00,,,0.06,27.000000,,2013-10-21 15:43:00,
2013-10-21 09:53:00,48.0,36.0,-100.00,NW,310,8.0,13.0,62,0.00,,,0.06,27.000000,,2013-10-21 15:53:00,
2013-10-21 10:23:00,49.0,36.0,-100.00,North,350,4.0,9.0,60,0.00,,,0.05,44.000000,,2013-10-21 16:23:00,
2013-10-21 10:33:00,49.0,36.0,-100.00,North,350,4.0,9.0,60,0.00,,,0.05,44.000000,,2013-10-21 16:33:00,
2013-10-21 10:43:00,49.0,36.0,-100.00,North,350,4.0,9.0,60,0.00,,,0.05,44.000000,,2013-10-21 16:43:00,
2013-10-21 10:53:00,49.0,36.0,-100.00,North,350,4.0,9.0,60,0.00,,,0.05,44.000000,,2013-10-21 16:53:00,
2013-10-21 11:22:00,52.0,39.0,-100.00,WNW,284,8.0,14.0,61,0.00,,,0.05,92.000000,,2013-10-21 17:22:00,
2013-10-21 11:34:00,52.0,39.0,-100.00,WNW,284,8.0,14.0,61,0.00,,,0.05,92.000000,,2013-10-21 17:34:00,
2013-10-21 11:43:00,52.0,39.0,-100.00,WNW,284,8.0,14.0,61,0.00,,,0.05,92.000000,,2013-10-21 17:43:00,
2013-10-21 11:53:00,52.0,39.0,-100.00,WNW,284,8.0,14.0,61,0.00,,,0.05,92.000000,,2013-10-21 17:53:00,
2013-10-21 12:42:00,53.0,37.0,-100.00,West,281,14.0,20.0,54,0.00,,,0.05,118.000000,,2013-10-21 18:42:00,
2013-10-21 12:52:00,53.0,37.0,-100.00,West,281,14.0,20.0,54,0.00,,,0.05,118.000000,,2013-10-21 18:52:00,
2013-10-21 13:42:00,54.0,37.0,-100.00,WNW,288,15.0,25.0,52,0.00,,,0.05,119.000000,,2013-10-21 19:42:00,
2013-10-21 13:52:00,54.0,37.0,-100.00,WNW,288,15.0,25.0,52,0.00,,,0.05,119.000000,,2013-10-21 19:52:00,
2013-10-21 14:43:00,54.0,38.0,-100.00,WNW,288,11.0,21.0,54,0.00,,,0.05,73.000000,,2013-10-21 20:43:00,
2013-10-21 14:52:00,54.0,38.0,-100.00,WNW,288,11.0,21.0,54,0.00,,,0.05,73.000000,,2013-10-21 20:52:00,
2013-10-21 15:44:00,56.0,38.0,-100.00,West,272,15.0,22.0,51,0.00,,,0.00,55.000000,,2013-10-21 21:44:00,
2013-10-21 15:54:00,56.0,38.0,-100.00,West,272,15.0,22.0,51,0.00,,,0.00,55.000000,,2013-10-21 21:54:00,
2013-10-21 16:23:00,57.0,38.0,-100.00,West,279,13.0,19.0,49,0.00,,,0.00,44.000000,,2013-10-21 22:23:00,
2013-10-21 16:34:00,57.0,38.0,-100.00,West,279,13.0,19.0,49,0.00,,,0.00,44.000000,,2013-10-21 22:34:00,
2013-10-21 16:44:00,57.0,38.0,-100.00,West,279,13.0,19.0,49,0.00,,,0.00,44.000000,,2013-10-21 22:44:00,
2013-10-21 16:53:00,57.0,38.0,-100.00,West,279,13.0,19.0,49,0.00,,,0.00,44.000000,,2013-10-21 22:53:00,
2013-10-21 17:22:00,56.0,38.0,-100.00,NW,304,8.0,17.0,51,0.00,,,0.00,40.000000,,2013-10-21 23:22:00,
2013-10-21 17:34:00,56.0,38.0,-100.00,NW,304,8.0,17.0,51,0.00,,,0.00,40.000000,,2013-10-21 23:34:00,
2013-10-21 17:42:00,56.0,38.0,-100.00,NW,304,8.0,17.0,51,0.00,,,0.00,40.000000,,2013-10-21 23:42:00,
2013-10-21 17:52:00,56.0,38.0,-100.00,NW,304,8.0,17.0,51,0.00,,,0.00,40.000000,,2013-10-21 23:52:00,
2013-10-21 18:22:00,55.0,40.0,-100.00,North,357,3.0,8.0,56,0.00,,,-99.99,14.000000,,2013-10-22 00:22:00,
2013-10-21 18:32:00,55.0,40.0,-100.00,North,357,3.0,8.0,56,0.00,,,-99.99,14.000000,,2013-10-22 00:32:00,
2013-10-21 18:42:00,55.0,40.0,-100.00,North,357,3.0,8.0,56,0.00,,,-99.99,14.000000,,2013-10-22 00:42:00,
2013-10-21 18:53:00,55.0,40.0,-100.00,North,357,3.0,8.0,56,0.00,,,-99.99,14.000000,,2013-10-22 00:53:00,
2013-10-21 19:42:00,53.0,41.0,-100.00,North,349,2.0,4.0,63,0.00,,,0.00,1.000000,,2013-10-22 01:42:00,
2013-10-21 19:52:00,53.0,41.0,-100.00,North,349,2.0,4.0,63,0.00,,,0.00,1.000000,,2013-10-22 01:52:00,
2013-10-21 20:42:00,52.0,41.0,-100.00,SSE,154,3.0,6.0,66,0.00,,,0.00,0.000000,,2013-10-22 02:42:00,
2013-10-21 20:52:00,52.0,41.0,-100.00,SSE,154,3.0,6.0,66,0.00,,,0.00,0.000000,,2013-10-22 02:52:00,
2013-10-21 21:45:00,53.0,39.0,-100.00,North,359,3.0,7.0,58,0.00,,,0.00,0.000000,,2013-10-22 03:45:00,
2013-10-21 21:55:00,53.0,39.0,-100.00,North,359,3.0,7.0,58,0.00,,,0.00,0.000000,,2013-10-22 03:55:00,
2013-10-21 22:43:00,53.0,38.0,-100.00,WNW,300,4.0,7.0,56,0.00,,,0.00,0.000000,,2013-10-22 04:43:00,
2013-10-21 22:54:00,53.0,38.0,-100.00,WNW,300,4.0,7.0,56,0.00,,,0.00,0.000000,,2013-10-22 04:54:00,
2013-10-21 23:43:00,53.0,38.0,-100.00,North,349,4.0,8.0,57,0.00,,,0.00,0.000000,,2013-10-22 05:43:00,
2013-10-21 23:52:00,53.0,38.0,-100.00,North,349,4.0,8.0,57,0.00,,,0.00,0.000000,,2013-10-22 05:52:00,